This demonstration page uses our WeatherBlox Daily Observations layout. Learn more.

36.19886, -115.1175

Hourly Observations for May 14, 2018

Temp ( °F °C ) Dew Point ( °F °C ) Humidity (%) Winds ( mph kmh ) Pressure ( in mb ) Visibility ( mi km ) Precip ( " mm )
12:53 am 00:53 Clear 72 22.2 28 -2.2 19 19 Calm 29.8 1009 10 16.09344 0 0
1:53 am 01:53 Clear 71 21.7 31 -0.6 23 23 Calm 29.8 1009 10 16.09344 0 0
2:53 am 02:53 Clear 67 19.4 37 2.8 33 33 ENE 7 11 29.83 1010 10 16.09344 0 0
3:53 am 03:53 Clear 68 20 37 2.8 32 32 NE 8 13 29.83 1010 10 16.09344 0 0
4:53 am 04:53 Clear 67 19.4 38 3.3 35 35 NNE 8 13 29.83 1010 10 16.09344 0 0
5:53 am 05:53 Sunny 66 18.9 38 3.3 36 36 NNE 9 15 29.85 1011 10 16.09344 0 0
6:53 am 06:53 Sunny 67 19.4 38 3.3 35 35 W 3 6 29.85 1011 10 16.09344 0 0
7:53 am 07:53 Sunny 70 21.1 38 3.3 31 31 N 3 6 29.88 1012 10 16.09344 0 0
8:53 am 08:53 Sunny 73 22.8 37 2.8 27 27 Calm 29.88 1012 10 16.09344 0 0
9:53 am 09:53 Sunny 76 24.4 30 -1.1 18 18 E 7 11 29.88 1012 10 16.09344 0 0
10:53 am 10:53 Sunny 77 25 30 -1.1 18 18 SE 6 9 29.88 1012 10 16.09344 0 0
11:53 am 11:53 Sunny 80 26.7 31 -0.6 17 17 N 6 9 29.88 1012 10 16.09344 0 0
12:53 pm 12:53 Sunny 81 27.2 32 0 17 17 SSW 9 15 29.85 1011 10 16.09344 0 0
1:53 pm 13:53 Sunny 82 27.8 30 -1.1 15 15 SE 7 11 29.83 1010 10 16.09344 0 0
2:53 pm 14:53 Partly Cloudy 83 28.3 30 -1.1 15 15 Calm 29.83 1010 10 16.09344 0 0
3:53 pm 15:53 Partly Cloudy 83 28.3 31 -0.6 15 15 SE 8 13 29.8 1009 10 16.09344 0 0
4:53 pm 16:53 Mostly Sunny 83 28.3 31 -0.6 15 15 SE 12 19 29.8 1009 10 16.09344 0 0
5:53 pm 17:53 Sunny 83 28.3 30 -1.1 15 15 SSE 8 13 29.77 1008 10 16.09344 0 0
6:53 pm 18:53 Sunny 82 27.8 29 -1.7 14 14 SSE 13 20 29.77 1008 10 16.09344 0 0
7:53 pm 19:53 Clear 81 27.2 27 -2.8 14 14 SSE 12 19 29.77 1008 10 16.09344 0 0
8:53 pm 20:53 Clear 79 26.1 27 -2.8 15 15 SSE 10 17 29.8 1009 10 16.09344 0 0
9:53 pm 21:53 Mostly Cloudy 80 26.7 23 -5 12 12 S 12 19 29.8 1009 10 16.09344 0 0
10:53 pm 22:53 Partly Cloudy 78 25.6 21 -6.1 12 12 S 9 15 29.8 1009 10 16.09344 0 0
11:53 pm 23:53 Mostly Clear 74 23.3 42 5.6 32 32 N 13 20 29.83 1010 10 16.09344 0 0

Powered by AerisWeather